sensor_id;sensor_type;location;lat;lon;timestamp;pressure;altitude;pressure_sealevel;temperature;humidity
12360;BME280;6244;51.460;7.090;2023-01-15T00:01:22;99015.69;;;9.17;82.71
12360;BME280;6244;51.460;7.090;2023-01-15T00:06:20;99018.03;;;9.09;82.82
12360;BME280;6244;51.460;7.090;2023-01-15T00:11:17;99026.81;;;9.08;82.62
12360;BME280;6244;51.460;7.090;2023-01-15T00:16:17;99009.88;;;9.01;82.40
12360;BME280;6244;51.460;7.090;2023-01-15T00:21:14;99016.50;;;8.94;82.48
12360;BME280;6244;51.460;7.090;2023-01-15T00:26:12;99020.47;;;8.87;82.61
12360;BME280;6244;51.460;7.090;2023-01-15T00:31:29;99027.00;;;8.81;82.39
12360;BME280;6244;51.460;7.090;2023-01-15T00:36:26;99034.09;;;8.79;82.34
12360;BME280;6244;51.460;7.090;2023-01-15T00:41:23;99030.97;;;8.74;82.34
12360;BME280;6244;51.460;7.090;2023-01-15T00:46:19;98998.84;;;8.72;82.54
12360;BME280;6244;51.460;7.090;2023-01-15T00:51:17;98981.63;;;8.69;82.11
12360;BME280;6244;51.460;7.090;2023-01-15T00:56:13;98977.75;;;8.62;82.13
12360;BME280;6244;51.460;7.090;2023-01-15T01:01:10;98976.06;;;8.61;82.06
12360;BME280;6244;51.460;7.090;2023-01-15T01:06:06;98976.47;;;8.55;82.49
12360;BME280;6244;51.460;7.090;2023-01-15T01:11:07;98969.69;;;8.52;82.30
12360;BME280;6244;51.460;7.090;2023-01-15T01:16:19;98966.56;;;8.47;82.29
12360;BME280;6244;51.460;7.090;2023-01-15T01:21:16;98991.16;;;8.45;82.32
12360;BME280;6244;51.460;7.090;2023-01-15T01:26:14;99008.63;;;8.44;81.86
12360;BME280;6244;51.460;7.090;2023-01-15T01:31:11;99026.16;;;8.42;81.83
12360;BME280;6244;51.460;7.090;2023-01-15T01:36:08;99028.16;;;8.39;82.37
12360;BME280;6244;51.460;7.090;2023-01-15T01:41:04;99032.66;;;8.37;82.13
12360;BME280;6244;51.460;7.090;2023-01-15T01:46:02;99027.53;;;8.35;81.94
12360;BME280;6244;51.460;7.090;2023-01-15T01:51:01;99025.09;;;8.32;82.28
12360;BME280;6244;51.460;7.090;2023-01-15T01:56:00;99012.44;;;8.26;81.88
12360;BME280;6244;51.460;7.090;2023-01-15T02:00:57;99019.53;;;8.24;81.76
12360;BME280;6244;51.460;7.090;2023-01-15T02:05:57;99037.09;;;8.22;81.74
12360;BME280;6244;51.460;7.090;2023-01-15T02:10:55;99030.41;;;8.18;81.73
12360;BME280;6244;51.460;7.090;2023-01-15T02:15:56;99026.00;;;8.18;81.88
12360;BME280;6244;51.460;7.090;2023-01-15T02:21:00;99013.03;;;8.17;82.11
12360;BME280;6244;51.460;7.090;2023-01-15T02:26:25;99000.19;;;8.14;81.74
12360;BME280;6244;51.460;7.090;2023-01-15T02:31:31;99008.03;;;8.14;81.85
12360;BME280;6244;51.460;7.090;2023-01-15T02:36:30;99015.16;;;8.12;81.51
12360;BME280;6244;51.460;7.090;2023-01-15T02:41:31;99012.53;;;8.12;81.44
12360;BME280;6244;51.460;7.090;2023-01-15T02:46:32;98986.50;;;8.10;81.01
12360;BME280;6244;51.460;7.090;2023-01-15T02:51:33;98976.34;;;8.06;81.09
12360;BME280;6244;51.460;7.090;2023-01-15T02:56:33;98990.28;;;8.06;80.95
12360;BME280;6244;51.460;7.090;2023-01-15T03:01:35;98995.50;;;8.06;80.90
12360;BME280;6244;51.460;7.090;2023-01-15T03:06:37;98986.91;;;8.04;80.79
12360;BME280;6244;51.460;7.090;2023-01-15T03:11:42;98992.03;;;8.06;81.08
12360;BME280;6244;51.460;7.090;2023-01-15T03:16:44;98972.19;;;8.03;80.49
12360;BME280;6244;51.460;7.090;2023-01-15T03:21:47;98981.78;;;8.03;80.81
12360;BME280;6244;51.460;7.090;2023-01-15T03:26:46;98986.28;;;8.01;80.76
12360;BME280;6244;51.460;7.090;2023-01-15T03:31:44;98953.38;;;7.98;80.60
12360;BME280;6244;51.460;7.090;2023-01-15T03:36:40;98970.84;;;7.98;80.58
12360;BME280;6244;51.460;7.090;2023-01-15T03:41:44;98958.91;;;7.93;80.08
12360;BME280;6244;51.460;7.090;2023-01-15T03:47:05;98944.38;;;7.89;80.09
12360;BME280;6244;51.460;7.090;2023-01-15T03:52:06;98948.56;;;7.92;79.89
12360;BME280;6244;51.460;7.090;2023-01-15T03:57:10;98959.84;;;7.92;79.93
12360;BME280;6244;51.460;7.090;2023-01-15T04:02:10;98957.66;;;7.86;80.01
12360;BME280;6244;51.460;7.090;2023-01-15T04:07:09;98970.41;;;7.91;79.74
12360;BME280;6244;51.460;7.090;2023-01-15T04:12:06;98960.78;;;7.91;79.61
12360;BME280;6244;51.460;7.090;2023-01-15T04:17:03;98970.41;;;7.91;79.67
12360;BME280;6244;51.460;7.090;2023-01-15T04:22:01;98964.44;;;7.89;79.19
12360;BME280;6244;51.460;7.090;2023-01-15T04:26:57;98961.81;;;7.89;79.51
12360;BME280;6244;51.460;7.090;2023-01-15T04:31:54;98967.16;;;7.87;79.35
12360;BME280;6244;51.460;7.090;2023-01-15T04:36:52;98983.78;;;7.86;79.33
12360;BME280;6244;51.460;7.090;2023-01-15T04:41:49;98976.97;;;7.84;79.06
12360;BME280;6244;51.460;7.090;2023-01-15T04:47:04;98985.00;;;7.81;78.96
12360;BME280;6244;51.460;7.090;2023-01-15T04:52:01;98978.94;;;7.80;79.30
12360;BME280;6244;51.460;7.090;2023-01-15T04:56:59;98984.16;;;7.80;79.22
12360;BME280;6244;51.460;7.090;2023-01-15T05:01:55;98978.94;;;7.80;78.69
12360;BME280;6244;51.460;7.090;2023-01-15T05:06:52;98978.09;;;7.80;78.49
12360;BME280;6244;51.460;7.090;2023-01-15T05:11:49;98981.53;;;7.80;78.62
12360;BME280;6244;51.460;7.090;2023-01-15T05:16:46;98979.88;;;7.79;78.31
12360;BME280;6244;51.460;7.090;2023-01-15T05:21:43;98976.66;;;7.76;78.53
12360;BME280;6244;51.460;7.090;2023-01-15T05:26:41;98972.25;;;7.76;78.56
12360;BME280;6244;51.460;7.090;2023-01-15T05:31:38;98979.34;;;7.74;78.11
12360;BME280;6244;51.460;7.090;2023-01-15T05:36:37;98978.06;;;7.67;78.26
12360;BME280;6244;51.460;7.090;2023-01-15T05:41:34;98978.06;;;7.67;77.81
12360;BME280;6244;51.460;7.090;2023-01-15T05:46:47;98970.16;;;7.69;77.82
12360;BME280;6244;51.460;7.090;2023-01-15T05:51:46;98971.09;;;7.68;78.01
12360;BME280;6244;51.460;7.090;2023-01-15T05:56:43;98981.84;;;7.63;77.57
12360;BME280;6244;51.460;7.090;2023-01-15T06:01:40;98987.06;;;7.63;77.44
12360;BME280;6244;51.460;7.090;2023-01-15T06:06:37;98982.66;;;7.63;77.59
12360;BME280;6244;51.460;7.090;2023-01-15T06:11:35;98990.50;;;7.63;77.22
12360;BME280;6244;51.460;7.090;2023-01-15T06:16:32;98998.34;;;7.63;77.38
12360;BME280;6244;51.460;7.090;2023-01-15T06:21:29;98999.16;;;7.64;77.66
12360;BME280;6244;51.460;7.090;2023-01-15T06:26:26;99000.00;;;7.64;77.14
12360;BME280;6244;51.460;7.090;2023-01-15T06:31:25;99012.31;;;7.62;77.41
12360;BME280;6244;51.460;7.090;2023-01-15T06:36:24;99002.81;;;7.61;77.11
12360;BME280;6244;51.460;7.090;2023-01-15T06:41:22;98997.72;;;7.60;77.36
12360;BME280;6244;51.460;7.090;2023-01-15T06:46:42;98997.06;;;7.56;76.78
12360;BME280;6244;51.460;7.090;2023-01-15T06:51:57;99005.75;;;7.57;76.79
12360;BME280;6244;51.460;7.090;2023-01-15T06:56:53;98998.09;;;7.54;77.07
12360;BME280;6244;51.460;7.090;2023-01-15T07:01:51;98991.94;;;7.55;77.11
12360;BME280;6244;51.460;7.090;2023-01-15T07:06:48;98999.75;;;7.55;76.71
12360;BME280;6244;51.460;7.090;2023-01-15T07:11:44;99003.41;;;7.52;76.32
12360;BME280;6244;51.460;7.090;2023-01-15T07:16:47;98991.31;;;7.51;76.40
12360;BME280;6244;51.460;7.090;2023-01-15T07:21:45;98995.91;;;7.48;76.31
12360;BME280;6244;51.460;7.090;2023-01-15T07:26:43;98992.25;;;7.50;76.14
12360;BME280;6244;51.460;7.090;2023-01-15T07:31:40;99003.72;;;7.48;76.12
12360;BME280;6244;51.460;7.090;2023-01-15T07:36:37;99012.50;;;7.47;76.05
12360;BME280;6244;51.460;7.090;2023-01-15T07:41:35;99013.31;;;7.47;75.73
12360;BME280;6244;51.460;7.090;2023-01-15T07:46:49;99022.19;;;7.45;75.43
12360;BME280;6244;51.460;7.090;2023-01-15T07:52:12;99036.09;;;7.45;75.54
12360;BME280;6244;51.460;7.090;2023-01-15T07:57:11;99038.75;;;7.44;75.39
12360;BME280;6244;51.460;7.090;2023-01-15T08:02:08;99048.38;;;7.43;75.02
12360;BME280;6244;51.460;7.090;2023-01-15T08:07:05;99038.13;;;7.40;75.21
12360;BME280;6244;51.460;7.090;2023-01-15T08:12:02;99065.78;;;7.43;75.36
12360;BME280;6244;51.460;7.090;2023-01-15T08:17:18;99065.16;;;7.39;74.81
12360;BME280;6244;51.460;7.090;2023-01-15T08:22:14;99072.88;;;7.41;75.26
12360;BME280;6244;51.460;7.090;2023-01-15T08:27:11;99077.28;;;7.40;75.29
12360;BME280;6244;51.460;7.090;2023-01-15T08:32:08;99078.22;;;7.39;74.67
12360;BME280;6244;51.460;7.090;2023-01-15T08:37:06;99078.41;;;7.36;74.83
12360;BME280;6244;51.460;7.090;2023-01-15T08:42:02;99087.19;;;7.35;74.37
12360;BME280;6244;51.460;7.090;2023-01-15T08:46:59;99086.44;;;7.33;74.58
12360;BME280;6244;51.460;7.090;2023-01-15T08:51:56;99099.84;;;7.27;74.00
12360;BME280;6244;51.460;7.090;2023-01-15T08:56:58;99088.97;;;7.20;73.71
12360;BME280;6244;51.460;7.090;2023-01-15T09:01:59;99100.41;;;7.18;73.57
12360;BME280;6244;51.460;7.090;2023-01-15T09:06:56;99115.31;;;7.16;73.94
12360;BME280;6244;51.460;7.090;2023-01-15T09:11:54;99105.81;;;7.15;73.63
12360;BME280;6244;51.460;7.090;2023-01-15T09:16:50;99117.19;;;7.14;73.30
12360;BME280;6244;51.460;7.090;2023-01-15T09:21:46;99117.19;;;7.14;73.03
12360;BME280;6244;51.460;7.090;2023-01-15T09:26:43;99113.84;;;7.12;73.38
12360;BME280;6244;51.460;7.090;2023-01-15T09:31:41;99107.69;;;7.13;72.82
12360;BME280;6244;51.460;7.090;2023-01-15T09:36:37;99110.50;;;7.10;73.07
12360;BME280;6244;51.460;7.090;2023-01-15T09:41:48;99101.09;;;7.07;72.67
12360;BME280;6244;51.460;7.090;2023-01-15T09:47:08;99095.59;;;7.12;72.73
12360;BME280;6244;51.460;7.090;2023-01-15T09:52:09;99093.44;;;7.04;72.64
12360;BME280;6244;51.460;7.090;2023-01-15T09:57:10;99088.97;;;7.06;72.25
12360;BME280;6244;51.460;7.090;2023-01-15T10:02:19;99115.81;;;7.08;72.29
12360;BME280;6244;51.460;7.090;2023-01-15T10:07:22;99106.97;;;7.11;72.45
12360;BME280;6244;51.460;7.090;2023-01-15T10:12:22;99095.50;;;6.99;72.52
12360;BME280;6244;51.460;7.090;2023-01-15T10:17:38;99113.28;;;7.06;72.24
12360;BME280;6244;51.460;7.090;2023-01-15T10:22:46;99107.22;;;7.06;71.83
12360;BME280;6244;51.460;7.090;2023-01-15T10:27:50;99113.00;;;7.11;72.04
12360;BME280;6244;51.460;7.090;2023-01-15T10:32:50;99133.78;;;7.13;72.08
12360;BME280;6244;51.460;7.090;2023-01-15T10:37:51;99116.25;;;7.15;71.40
12360;BME280;6244;51.460;7.090;2023-01-15T10:42:54;99123.16;;;7.16;71.08
12360;BME280;6244;51.460;7.090;2023-01-15T10:48:00;99124.00;;;7.16;70.91
12360;BME280;6244;51.460;7.090;2023-01-15T10:53:04;99107.41;;;7.17;70.45
12360;BME280;6244;51.460;7.090;2023-01-15T10:58:12;99121.28;;;7.18;69.28
12360;BME280;6244;51.460;7.090;2023-01-15T11:03:12;99114.22;;;7.20;68.71
12360;BME280;6244;51.460;7.090;2023-01-15T11:08:21;99128.00;;;7.22;68.18
12360;BME280;6244;51.460;7.090;2023-01-15T11:13:25;99137.84;;;7.31;67.94
12360;BME280;6244;51.460;7.090;2023-01-15T11:18:42;99136.56;;;7.38;67.99
12360;BME280;6244;51.460;7.090;2023-01-15T11:23:58;99133.00;;;7.39;68.33
12360;BME280;6244;51.460;7.090;2023-01-15T11:28:56;99118.00;;;7.43;68.26
12360;BME280;6244;51.460;7.090;2023-01-15T11:34:00;99140.72;;;7.41;67.89
12360;BME280;6244;51.460;7.090;2023-01-15T11:38:58;99120.53;;;7.44;67.58
12360;BME280;6244;51.460;7.090;2023-01-15T11:43:55;99110.81;;;7.46;67.57
12360;BME280;6244;51.460;7.090;2023-01-15T11:49:16;99107.38;;;7.46;67.51
12360;BME280;6244;51.460;7.090;2023-01-15T11:54:31;99109.31;;;7.42;67.18
12360;BME280;6244;51.460;7.090;2023-01-15T11:59:31;99133.47;;;7.46;66.99
12360;BME280;6244;51.460;7.090;2023-01-15T12:04:33;99124.88;;;7.44;66.49
12360;BME280;6244;51.460;7.090;2023-01-15T12:09:44;99139.81;;;7.42;66.54
12360;BME280;6244;51.460;7.090;2023-01-15T12:15:01;99112.88;;;7.41;66.33
12360;BME280;6244;51.460;7.090;2023-01-15T12:20:12;99133.94;;;7.38;66.44
12360;BME280;6244;51.460;7.090;2023-01-15T12:25:37;99108.78;;;7.37;66.17
12360;BME280;6244;51.460;7.090;2023-01-15T12:30:41;99099.19;;;7.38;66.37
12360;BME280;6244;51.460;7.090;2023-01-15T12:35:49;99093.44;;;7.32;66.09
12360;BME280;6244;51.460;7.090;2023-01-15T12:40:55;99099.66;;;7.30;65.88
12360;BME280;6244;51.460;7.090;2023-01-15T12:45:56;99080.19;;;7.35;65.87
12360;BME280;6244;51.460;7.090;2023-01-15T12:50:59;99083.63;;;7.36;65.84
12360;BME280;6244;51.460;7.090;2023-01-15T12:55:59;99070.28;;;7.41;65.90
12360;BME280;6244;51.460;7.090;2023-01-15T13:01:03;99080.34;;;7.47;65.06
12360;BME280;6244;51.460;7.090;2023-01-15T13:06:03;99085.47;;;7.48;65.00
12360;BME280;6244;51.460;7.090;2023-01-15T13:11:03;99080.16;;;7.50;64.21
12360;BME280;6244;51.460;7.090;2023-01-15T13:16:11;99102.69;;;7.51;64.37
12360;BME280;6244;51.460;7.090;2023-01-15T13:21:15;99101.75;;;7.52;64.71
12360;BME280;6244;51.460;7.090;2023-01-15T13:26:23;99095.59;;;7.53;64.32
12360;BME280;6244;51.460;7.090;2023-01-15T13:31:45;99110.94;;;7.45;64.43
12360;BME280;6244;51.460;7.090;2023-01-15T13:36:46;99110.72;;;7.48;64.52
12360;BME280;6244;51.460;7.090;2023-01-15T13:41:46;99127.31;;;7.47;64.74
12360;BME280;6244;51.460;7.090;2023-01-15T13:47:04;99124.88;;;7.44;64.59
12360;BME280;6244;51.460;7.090;2023-01-15T13:52:04;99122.00;;;7.48;64.31
12360;BME280;6244;51.460;7.090;2023-01-15T13:57:08;99132.72;;;7.44;64.85
12360;BME280;6244;51.460;7.090;2023-01-15T14:02:20;99132.63;;;7.45;64.80
12360;BME280;6244;51.460;7.090;2023-01-15T14:07:20;99148.38;;;7.44;65.05
12360;BME280;6244;51.460;7.090;2023-01-15T14:12:29;99126.84;;;7.40;64.31
12360;BME280;6244;51.460;7.090;2023-01-15T14:17:57;99141.03;;;7.36;64.50
12360;BME280;6244;51.460;7.090;2023-01-15T14:23:07;99129.75;;;7.35;64.57
12360;BME280;6244;51.460;7.090;2023-01-15T14:28:29;99139.34;;;7.35;64.84
12360;BME280;6244;51.460;7.090;2023-01-15T14:33:35;99146.25;;;7.36;64.30
12360;BME280;6244;51.460;7.090;2023-01-15T14:38:46;99146.44;;;7.33;64.42
12360;BME280;6244;51.460;7.090;2023-01-15T14:43:47;99153.50;;;7.31;64.02
12360;BME280;6244;51.460;7.090;2023-01-15T14:48:44;99155.00;;;7.35;64.09
12360;BME280;6244;51.460;7.090;2023-01-15T14:53:42;99171.72;;;7.32;64.27
12360;BME280;6244;51.460;7.090;2023-01-15T14:58:47;99159.41;;;7.34;64.51
12360;BME280;6244;51.460;7.090;2023-01-15T15:03:49;99162.94;;;7.33;64.58
12360;BME280;6244;51.460;7.090;2023-01-15T15:08:49;99162.16;;;7.31;64.32
12360;BME280;6244;51.460;7.090;2023-01-15T15:13:48;99167.78;;;7.25;64.20
12360;BME280;6244;51.460;7.090;2023-01-15T15:18:54;99174.56;;;7.28;63.93
12360;BME280;6244;51.460;7.090;2023-01-15T15:23:58;99177.00;;;7.31;64.03
12360;BME280;6244;51.460;7.090;2023-01-15T15:29:01;99174.78;;;7.25;63.85
12360;BME280;6244;51.460;7.090;2023-01-15T15:33:58;99171.31;;;7.24;64.03
12360;BME280;6244;51.460;7.090;2023-01-15T15:38:57;99172.16;;;7.25;63.95
12360;BME280;6244;51.460;7.090;2023-01-15T15:43:55;99181.19;;;7.19;64.03
12360;BME280;6244;51.460;7.090;2023-01-15T15:49:12;99170.59;;;7.22;64.08
12360;BME280;6244;51.460;7.090;2023-01-15T15:54:15;99182.59;;;7.25;63.74
12360;BME280;6244;51.460;7.090;2023-01-15T15:59:17;99200.97;;;7.23;64.20
12360;BME280;6244;51.460;7.090;2023-01-15T16:04:17;99183.44;;;7.25;63.85
12360;BME280;6244;51.460;7.090;2023-01-15T16:09:19;99182.06;;;7.20;63.75
12360;BME280;6244;51.460;7.090;2023-01-15T16:14:17;99179.50;;;7.18;63.77
12360;BME280;6244;51.460;7.090;2023-01-15T16:19:18;99182.13;;;7.18;64.28
12360;BME280;6244;51.460;7.090;2023-01-15T16:24:24;99198.59;;;7.19;64.57
12360;BME280;6244;51.460;7.090;2023-01-15T16:29:23;99196.28;;;7.14;64.00
12360;BME280;6244;51.460;7.090;2023-01-15T16:34:24;99186.88;;;7.12;64.25
12360;BME280;6244;51.460;7.090;2023-01-15T16:39:23;99195.63;;;7.11;64.29
12360;BME280;6244;51.460;7.090;2023-01-15T16:44:33;99198.78;;;7.16;64.43
12360;BME280;6244;51.460;7.090;2023-01-15T16:49:33;99197.13;;;7.15;64.39
12360;BME280;6244;51.460;7.090;2023-01-15T16:54:40;99188.47;;;7.14;64.40
12360;BME280;6244;51.460;7.090;2023-01-15T16:59:55;99191.91;;;7.15;64.78
12360;BME280;6244;51.460;7.090;2023-01-15T17:04:53;99184.72;;;7.18;64.64
12360;BME280;6244;51.460;7.090;2023-01-15T17:09:51;99188.47;;;7.14;65.07
12360;BME280;6244;51.460;7.090;2023-01-15T17:14:48;99185.09;;;7.12;64.73
12360;BME280;6244;51.460;7.090;2023-01-15T17:19:45;99197.41;;;7.10;64.49
12360;BME280;6244;51.460;7.090;2023-01-15T17:24:50;99196.38;;;7.13;64.61
12360;BME280;6244;51.460;7.090;2023-01-15T17:29:47;99210.16;;;7.15;64.77
12360;BME280;6244;51.460;7.090;2023-01-15T17:34:44;99196.56;;;7.10;64.75
12360;BME280;6244;51.460;7.090;2023-01-15T17:39:40;99202.81;;;7.07;64.19
12360;BME280;6244;51.460;7.090;2023-01-15T17:44:38;99190.78;;;7.04;64.28
12360;BME280;6244;51.460;7.090;2023-01-15T17:49:35;99206.25;;;7.07;64.66
12360;BME280;6244;51.460;7.090;2023-01-15T17:54:35;99197.75;;;7.04;64.56
12360;BME280;6244;51.460;7.090;2023-01-15T17:59:53;99194.13;;;7.06;64.58
12360;BME280;6244;51.460;7.090;2023-01-15T18:05:11;99202.03;;;7.05;65.00
12360;BME280;6244;51.460;7.090;2023-01-15T18:10:29;99204.09;;;7.00;64.87
12360;BME280;6244;51.460;7.090;2023-01-15T18:15:33;99212.75;;;7.00;64.95
12360;BME280;6244;51.460;7.090;2023-01-15T18:26:20;99203.56;;;6.95;64.72
12360;BME280;6244;51.460;7.090;2023-01-15T18:31:28;99172.16;;;6.82;64.80
12360;BME280;6244;51.460;7.090;2023-01-15T18:36:35;99213.50;;;7.02;65.25
12360;BME280;6244;51.460;7.090;2023-01-15T18:41:48;99213.06;;;6.96;65.58
12360;BME280;6244;51.460;7.090;2023-01-15T18:47:06;99215.72;;;6.94;65.60
12360;BME280;6244;51.460;7.090;2023-01-15T18:52:15;99199.81;;;6.85;65.23
12360;BME280;6244;51.460;7.090;2023-01-15T18:57:50;99214.03;;;6.93;65.23
12360;BME280;6244;51.460;7.090;2023-01-15T19:02:57;99176.88;;;6.75;65.79
12360;BME280;6244;51.460;7.090;2023-01-15T19:07:54;99204.09;;;6.86;65.66
12360;BME280;6244;51.460;7.090;2023-01-15T19:13:22;99174.16;;;6.77;65.97
12360;BME280;6244;51.460;7.090;2023-01-15T19:18:38;99209.66;;;6.94;65.96
12360;BME280;6244;51.460;7.090;2023-01-15T19:23:53;99202.31;;;6.86;66.25
12360;BME280;6244;51.460;7.090;2023-01-15T19:29:06;99185.94;;;6.84;66.35
12360;BME280;6244;51.460;7.090;2023-01-15T19:34:20;99184.53;;;6.93;66.37
12360;BME280;6244;51.460;7.090;2023-01-15T19:39:20;99187.91;;;6.95;66.22
12360;BME280;6244;51.460;7.090;2023-01-15T19:49:51;99159.56;;;6.74;66.34
12360;BME280;6244;51.460;7.090;2023-01-15T19:56:01;99160.94;;;6.80;66.57
12360;BME280;6244;51.460;7.090;2023-01-15T20:01:27;99139.53;;;6.75;66.62
12360;BME280;6244;51.460;7.090;2023-01-15T20:06:29;99135.81;;;6.79;66.61
12360;BME280;6244;51.460;7.090;2023-01-15T20:11:45;99133.41;;;6.76;66.10
12360;BME280;6244;51.460;7.090;2023-01-15T20:17:12;99104.34;;;6.68;66.67
12360;BME280;6244;51.460;7.090;2023-01-15T20:28:02;99105.84;;;6.72;66.11
12360;BME280;6244;51.460;7.090;2023-01-15T20:33:09;99093.81;;;6.69;65.99
12360;BME280;6244;51.460;7.090;2023-01-15T20:38:19;99076.97;;;6.61;66.34
12360;BME280;6244;51.460;7.090;2023-01-15T20:43:35;99084.25;;;6.70;65.90
12360;BME280;6244;51.460;7.090;2023-01-15T20:48:57;99082.38;;;6.72;65.52
12360;BME280;6244;51.460;7.090;2023-01-15T20:54:14;99071.22;;;6.70;65.78
12360;BME280;6244;51.460;7.090;2023-01-15T20:59:14;99082.00;;;6.78;65.75
12360;BME280;6244;51.460;7.090;2023-01-15T21:04:11;99052.78;;;6.59;65.51
12360;BME280;6244;51.460;7.090;2023-01-15T21:09:10;99068.13;;;6.77;65.83
12360;BME280;6244;51.460;7.090;2023-01-15T21:14:09;99037.69;;;6.64;65.66
12360;BME280;6244;51.460;7.090;2023-01-15T21:19:17;99052.38;;;6.79;65.86
12360;BME280;6244;51.460;7.090;2023-01-15T21:24:32;99036.47;;;6.69;65.97
12360;BME280;6244;51.460;7.090;2023-01-15T21:35:39;99012.56;;;6.63;66.04
12360;BME280;6244;51.460;7.090;2023-01-15T21:40:39;99015.72;;;6.68;66.06
12360;BME280;6244;51.460;7.090;2023-01-15T21:45:43;98997.56;;;6.66;66.54
12360;BME280;6244;51.460;7.090;2023-01-15T21:50:46;99008.06;;;6.79;66.55
12360;BME280;6244;51.460;7.090;2023-01-15T21:55:47;98989.53;;;6.69;66.72
12360;BME280;6244;51.460;7.090;2023-01-15T22:00:51;98965.19;;;6.56;67.33
12360;BME280;6244;51.460;7.090;2023-01-15T22:05:50;98997.19;;;6.72;67.26
12360;BME280;6244;51.460;7.090;2023-01-15T22:10:47;98967.72;;;6.58;67.43
12360;BME280;6244;51.460;7.090;2023-01-15T22:16:18;98955.44;;;6.45;68.23
12360;BME280;6244;51.460;7.090;2023-01-15T22:21:36;98970.47;;;6.55;68.27
12360;BME280;6244;51.460;7.090;2023-01-15T22:26:33;98943.41;;;6.43;69.11
12360;BME280;6244;51.460;7.090;2023-01-15T22:31:32;98961.56;;;6.59;69.46
12360;BME280;6244;51.460;7.090;2023-01-15T22:36:35;98949.63;;;6.55;69.54
12360;BME280;6244;51.460;7.090;2023-01-15T22:41:34;98944.53;;;6.53;69.75
12360;BME280;6244;51.460;7.090;2023-01-15T22:46:50;98951.41;;;6.54;69.67
12360;BME280;6244;51.460;7.090;2023-01-15T22:51:53;98917.09;;;6.47;70.27
12360;BME280;6244;51.460;7.090;2023-01-15T22:56:50;98890.22;;;6.33;70.37
12360;BME280;6244;51.460;7.090;2023-01-15T23:01:49;98870.41;;;6.30;70.41
12360;BME280;6244;51.460;7.090;2023-01-15T23:06:46;98866.13;;;6.29;70.92
12360;BME280;6244;51.460;7.090;2023-01-15T23:11:47;98869.72;;;6.41;70.98
12360;BME280;6244;51.460;7.090;2023-01-15T23:16:45;98858.09;;;6.32;70.88
12360;BME280;6244;51.460;7.090;2023-01-15T23:21:42;98846.13;;;6.30;71.20
12360;BME280;6244;51.460;7.090;2023-01-15T23:26:39;98838.97;;;6.33;71.12
12360;BME280;6244;51.460;7.090;2023-01-15T23:31:37;98840.63;;;6.34;71.37
12360;BME280;6244;51.460;7.090;2023-01-15T23:36:34;98813.84;;;6.18;71.09
12360;BME280;6244;51.460;7.090;2023-01-15T23:41:31;98820.91;;;6.30;71.34
12360;BME280;6244;51.460;7.090;2023-01-15T23:46:47;98797.41;;;6.17;71.96
12360;BME280;6244;51.460;7.090;2023-01-15T23:51:44;98786.81;;;6.21;71.87
12360;BME280;6244;51.460;7.090;2023-01-15T23:56:40;98764.38;;;6.18;72.12
